sensor_id;sensor_type;location;lat;lon;timestamp;P1;P2;P0
44350;PMS5003;62766;62.622;17.912;2022-10-14T00:01:21;4;4;
44350;PMS5003;62766;62.622;17.912;2022-10-14T00:03:52;7;6;
44350;PMS5003;62766;62.622;17.912;2022-10-14T00:06:23;8;5;
44350;PMS5003;62766;62.622;17.912;2022-10-14T00:08:53;4;4;
44350;PMS5003;62766;62.622;17.912;2022-10-14T00:11:23;8;6;
44350;PMS5003;62766;62.622;17.912;2022-10-14T00:13:53;7;6;
44350;PMS5003;62766;62.622;17.912;2022-10-14T00:16:24;6;6;
44350;PMS5003;62766;62.622;17.912;2022-10-14T00:18:56;4;4;
44350;PMS5003;62766;62.622;17.912;2022-10-14T00:21:24;9;8;
44350;PMS5003;62766;62.622;17.912;2022-10-14T00:23:53;12;10;
44350;PMS5003;62766;62.622;17.912;2022-10-14T00:26:23;38;32;
44350;PMS5003;62766;62.622;17.912;2022-10-14T00:28:54;46;37;
44350;PMS5003;62766;62.622;17.912;2022-10-14T00:31:23;35;30;
44350;PMS5003;62766;62.622;17.912;2022-10-14T00:33:52;33;27;
44350;PMS5003;62766;62.622;17.912;2022-10-14T00:36:22;19;15;
44350;PMS5003;62766;62.622;17.912;2022-10-14T00:38:53;15;11;
44350;PMS5003;62766;62.622;17.912;2022-10-14T00:41:23;8;8;
44350;PMS5003;62766;62.622;17.912;2022-10-14T00:43:55;11;9;
44350;PMS5003;62766;62.622;17.912;2022-10-14T00:46:27;12;10;
44350;PMS5003;62766;62.622;17.912;2022-10-14T00:48:59;9;9;
44350;PMS5003;62766;62.622;17.912;2022-10-14T00:51:31;8;7;
44350;PMS5003;62766;62.622;17.912;2022-10-14T00:54:02;7;7;
44350;PMS5003;62766;62.622;17.912;2022-10-14T00:56:31;7;7;
44350;PMS5003;62766;62.622;17.912;2022-10-14T00:59:02;10;9;
44350;PMS5003;62766;62.622;17.912;2022-10-14T01:01:32;7;6;
44350;PMS5003;62766;62.622;17.912;2022-10-14T01:04:01;6;6;
44350;PMS5003;62766;62.622;17.912;2022-10-14T01:06:35;7;7;
44350;PMS5003;62766;62.622;17.912;2022-10-14T01:09:10;6;6;
44350;PMS5003;62766;62.622;17.912;2022-10-14T01:11:48;8;8;
44350;PMS5003;62766;62.622;17.912;2022-10-14T01:14:29;7;6;
44350;PMS5003;62766;62.622;17.912;2022-10-14T01:17:02;7;7;
44350;PMS5003;62766;62.622;17.912;2022-10-14T01:19:45;5;5;
44350;PMS5003;62766;62.622;17.912;2022-10-14T01:22:34;4;3;
44350;PMS5003;62766;62.622;17.912;2022-10-14T01:25:10;7;5;
44350;PMS5003;62766;62.622;17.912;2022-10-14T01:27:51;4;4;
44350;PMS5003;62766;62.622;17.912;2022-10-14T01:30:30;5;5;
44350;PMS5003;62766;62.622;17.912;2022-10-14T01:33:04;3;3;
44350;PMS5003;62766;62.622;17.912;2022-10-14T01:35:42;6;5;
44350;PMS5003;62766;62.622;17.912;2022-10-14T01:38:22;5;5;
44350;PMS5003;62766;62.622;17.912;2022-10-14T01:40:54;5;5;
44350;PMS5003;62766;62.622;17.912;2022-10-14T01:43:26;4;4;
44350;PMS5003;62766;62.622;17.912;2022-10-14T01:45:55;5;5;
44350;PMS5003;62766;62.622;17.912;2022-10-14T01:48:29;3;3;
44350;PMS5003;62766;62.622;17.912;2022-10-14T01:51:02;4;4;
44350;PMS5003;62766;62.622;17.912;2022-10-14T01:53:36;5;5;
44350;PMS5003;62766;62.622;17.912;2022-10-14T01:56:10;5;5;
44350;PMS5003;62766;62.622;17.912;2022-10-14T01:58:39;9;8;
44350;PMS5003;62766;62.622;17.912;2022-10-14T02:01:09;8;7;
44350;PMS5003;62766;62.622;17.912;2022-10-14T02:03:40;9;8;
44350;PMS5003;62766;62.622;17.912;2022-10-14T02:06:11;7;7;
44350;PMS5003;62766;62.622;17.912;2022-10-14T02:08:50;14;12;
44350;PMS5003;62766;62.622;17.912;2022-10-14T02:11:28;7;7;
44350;PMS5003;62766;62.622;17.912;2022-10-14T02:14:04;9;9;
44350;PMS5003;62766;62.622;17.912;2022-10-14T02:16:41;6;6;
44350;PMS5003;62766;62.622;17.912;2022-10-14T02:19:22;9;9;
44350;PMS5003;62766;62.622;17.912;2022-10-14T02:21:57;7;7;
44350;PMS5003;62766;62.622;17.912;2022-10-14T02:24:31;9;8;
44350;PMS5003;62766;62.622;17.912;2022-10-14T02:27:06;6;6;
44350;PMS5003;62766;62.622;17.912;2022-10-14T02:29:38;6;6;
44350;PMS5003;62766;62.622;17.912;2022-10-14T02:32:09;5;5;
44350;PMS5003;62766;62.622;17.912;2022-10-14T02:34:41;6;6;
44350;PMS5003;62766;62.622;17.912;2022-10-14T02:37:13;5;5;
44350;PMS5003;62766;62.622;17.912;2022-10-14T02:39:45;8;7;
44350;PMS5003;62766;62.622;17.912;2022-10-14T02:42:20;6;6;
44350;PMS5003;62766;62.622;17.912;2022-10-14T02:44:52;7;6;
44350;PMS5003;62766;62.622;17.912;2022-10-14T02:47:21;6;6;
44350;PMS5003;62766;62.622;17.912;2022-10-14T02:49:52;7;7;
44350;PMS5003;62766;62.622;17.912;2022-10-14T02:52:21;8;8;
44350;PMS5003;62766;62.622;17.912;2022-10-14T02:54:50;7;7;
44350;PMS5003;62766;62.622;17.912;2022-10-14T02:57:18;6;6;
44350;PMS5003;62766;62.622;17.912;2022-10-14T02:59:46;6;6;
44350;PMS5003;62766;62.622;17.912;2022-10-14T03:02:14;5;5;
44350;PMS5003;62766;62.622;17.912;2022-10-14T03:04:42;6;6;
44350;PMS5003;62766;62.622;17.912;2022-10-14T03:07:11;6;6;
44350;PMS5003;62766;62.622;17.912;2022-10-14T03:09:39;8;8;
44350;PMS5003;62766;62.622;17.912;2022-10-14T03:12:07;7;7;
44350;PMS5003;62766;62.622;17.912;2022-10-14T03:14:35;7;7;
44350;PMS5003;62766;62.622;17.912;2022-10-14T03:17:04;10;10;
44350;PMS5003;62766;62.622;17.912;2022-10-14T03:19:32;11;11;
44350;PMS5003;62766;62.622;17.912;2022-10-14T03:22:00;11;11;
44350;PMS5003;62766;62.622;17.912;2022-10-14T03:24:28;10;10;
44350;PMS5003;62766;62.622;17.912;2022-10-14T03:26:57;11;10;
44350;PMS5003;62766;62.622;17.912;2022-10-14T03:29:25;12;11;
44350;PMS5003;62766;62.622;17.912;2022-10-14T03:31:54;15;15;
44350;PMS5003;62766;62.622;17.912;2022-10-14T03:34:22;11;11;
44350;PMS5003;62766;62.622;17.912;2022-10-14T03:36:51;13;13;
44350;PMS5003;62766;62.622;17.912;2022-10-14T03:39:21;15;14;
44350;PMS5003;62766;62.622;17.912;2022-10-14T03:41:49;19;17;
44350;PMS5003;62766;62.622;17.912;2022-10-14T03:44:18;16;16;
44350;PMS5003;62766;62.622;17.912;2022-10-14T03:46:47;15;15;
44350;PMS5003;62766;62.622;17.912;2022-10-14T03:49:15;18;17;
44350;PMS5003;62766;62.622;17.912;2022-10-14T03:51:44;16;15;
44350;PMS5003;62766;62.622;17.912;2022-10-14T03:54:12;17;17;
44350;PMS5003;62766;62.622;17.912;2022-10-14T03:56:41;14;14;
44350;PMS5003;62766;62.622;17.912;2022-10-14T03:59:09;13;13;
44350;PMS5003;62766;62.622;17.912;2022-10-14T04:03:29;15;15;
44350;PMS5003;62766;62.622;17.912;2022-10-14T04:05:58;18;17;
44350;PMS5003;62766;62.622;17.912;2022-10-14T04:08:27;9;8;
44350;PMS5003;62766;62.622;17.912;2022-10-14T04:10:55;10;9;
44350;PMS5003;62766;62.622;17.912;2022-10-14T04:13:23;6;6;
44350;PMS5003;62766;62.622;17.912;2022-10-14T04:15:51;9;6;
44350;PMS5003;62766;62.622;17.912;2022-10-14T04:18:20;7;7;
44350;PMS5003;62766;62.622;17.912;2022-10-14T04:20:48;7;7;
44350;PMS5003;62766;62.622;17.912;2022-10-14T04:23:16;6;6;
44350;PMS5003;62766;62.622;17.912;2022-10-14T04:25:45;10;9;
44350;PMS5003;62766;62.622;17.912;2022-10-14T04:28:14;9;9;
44350;PMS5003;62766;62.622;17.912;2022-10-14T04:30:43;11;11;
44350;PMS5003;62766;62.622;17.912;2022-10-14T04:33:13;8;8;
44350;PMS5003;62766;62.622;17.912;2022-10-14T04:35:41;6;6;
44350;PMS5003;62766;62.622;17.912;2022-10-14T04:38:09;8;8;
44350;PMS5003;62766;62.622;17.912;2022-10-14T04:40:37;6;6;
44350;PMS5003;62766;62.622;17.912;2022-10-14T04:43:06;10;10;
44350;PMS5003;62766;62.622;17.912;2022-10-14T04:45:34;6;6;
44350;PMS5003;62766;62.622;17.912;2022-10-14T04:48:02;9;9;
44350;PMS5003;62766;62.622;17.912;2022-10-14T04:50:30;7;7;
44350;PMS5003;62766;62.622;17.912;2022-10-14T04:52:58;6;6;
44350;PMS5003;62766;62.622;17.912;2022-10-14T04:55:27;6;6;
44350;PMS5003;62766;62.622;17.912;2022-10-14T04:57:55;7;7;
44350;PMS5003;62766;62.622;17.912;2022-10-14T05:00:23;8;8;
44350;PMS5003;62766;62.622;17.912;2022-10-14T05:02:52;8;8;
44350;PMS5003;62766;62.622;17.912;2022-10-14T05:05:20;9;7;
44350;PMS5003;62766;62.622;17.912;2022-10-14T05:07:48;12;10;
44350;PMS5003;62766;62.622;17.912;2022-10-14T05:10:16;8;8;
44350;PMS5003;62766;62.622;17.912;2022-10-14T05:12:45;10;10;
44350;PMS5003;62766;62.622;17.912;2022-10-14T05:15:13;7;7;
44350;PMS5003;62766;62.622;17.912;2022-10-14T05:17:43;13;11;
44350;PMS5003;62766;62.622;17.912;2022-10-14T05:20:13;12;12;
44350;PMS5003;62766;62.622;17.912;2022-10-14T05:22:42;13;11;
44350;PMS5003;62766;62.622;17.912;2022-10-14T05:25:12;15;14;
44350;PMS5003;62766;62.622;17.912;2022-10-14T05:27:40;11;10;
44350;PMS5003;62766;62.622;17.912;2022-10-14T05:30:08;9;9;
44350;PMS5003;62766;62.622;17.912;2022-10-14T05:32:38;11;11;
44350;PMS5003;62766;62.622;17.912;2022-10-14T05:35:07;7;7;
44350;PMS5003;62766;62.622;17.912;2022-10-14T05:37:36;10;8;
44350;PMS5003;62766;62.622;17.912;2022-10-14T05:40:04;8;8;
44350;PMS5003;62766;62.622;17.912;2022-10-14T05:42:34;10;10;
44350;PMS5003;62766;62.622;17.912;2022-10-14T05:45:02;10;9;
44350;PMS5003;62766;62.622;17.912;2022-10-14T05:47:32;8;8;
44350;PMS5003;62766;62.622;17.912;2022-10-14T05:50:00;7;7;
44350;PMS5003;62766;62.622;17.912;2022-10-14T05:52:29;11;9;
44350;PMS5003;62766;62.622;17.912;2022-10-14T05:54:57;10;10;
44350;PMS5003;62766;62.622;17.912;2022-10-14T05:57:26;10;10;
44350;PMS5003;62766;62.622;17.912;2022-10-14T05:59:55;15;13;
44350;PMS5003;62766;62.622;17.912;2022-10-14T06:02:24;10;9;
44350;PMS5003;62766;62.622;17.912;2022-10-14T06:04:52;11;11;
44350;PMS5003;62766;62.622;17.912;2022-10-14T06:07:21;12;9;
44350;PMS5003;62766;62.622;17.912;2022-10-14T06:09:50;11;11;
44350;PMS5003;62766;62.622;17.912;2022-10-14T06:12:18;10;10;
44350;PMS5003;62766;62.622;17.912;2022-10-14T06:14:47;12;10;
44350;PMS5003;62766;62.622;17.912;2022-10-14T06:17:15;12;10;
44350;PMS5003;62766;62.622;17.912;2022-10-14T06:19:44;8;8;
44350;PMS5003;62766;62.622;17.912;2022-10-14T06:22:14;10;8;
44350;PMS5003;62766;62.622;17.912;2022-10-14T06:24:42;9;9;
44350;PMS5003;62766;62.622;17.912;2022-10-14T06:27:12;8;8;
44350;PMS5003;62766;62.622;17.912;2022-10-14T06:29:40;9;8;
44350;PMS5003;62766;62.622;17.912;2022-10-14T06:32:08;8;8;
44350;PMS5003;62766;62.622;17.912;2022-10-14T06:34:36;7;7;
44350;PMS5003;62766;62.622;17.912;2022-10-14T06:37:05;7;7;
44350;PMS5003;62766;62.622;17.912;2022-10-14T06:39:33;7;7;
44350;PMS5003;62766;62.622;17.912;2022-10-14T06:42:01;9;7;
44350;PMS5003;62766;62.622;17.912;2022-10-14T06:44:29;8;8;
44350;PMS5003;62766;62.622;17.912;2022-10-14T06:46:58;11;10;
44350;PMS5003;62766;62.622;17.912;2022-10-14T06:49:26;7;7;
44350;PMS5003;62766;62.622;17.912;2022-10-14T06:51:54;8;7;
44350;PMS5003;62766;62.622;17.912;2022-10-14T06:54:22;7;7;
44350;PMS5003;62766;62.622;17.912;2022-10-14T06:56:50;7;5;
44350;PMS5003;62766;62.622;17.912;2022-10-14T06:59:19;7;6;
44350;PMS5003;62766;62.622;17.912;2022-10-14T07:01:47;8;8;
44350;PMS5003;62766;62.622;17.912;2022-10-14T07:04:15;7;7;
44350;PMS5003;62766;62.622;17.912;2022-10-14T07:06:44;7;7;
44350;PMS5003;62766;62.622;17.912;2022-10-14T07:09:13;10;8;
44350;PMS5003;62766;62.622;17.912;2022-10-14T07:11:42;7;7;
44350;PMS5003;62766;62.622;17.912;2022-10-14T07:14:11;10;8;
44350;PMS5003;62766;62.622;17.912;2022-10-14T07:16:41;10;9;
44350;PMS5003;62766;62.622;17.912;2022-10-14T07:19:10;8;8;
44350;PMS5003;62766;62.622;17.912;2022-10-14T07:21:40;6;6;
44350;PMS5003;62766;62.622;17.912;2022-10-14T07:24:08;8;8;
44350;PMS5003;62766;62.622;17.912;2022-10-14T07:26:36;7;7;
44350;PMS5003;62766;62.622;17.912;2022-10-14T07:29:05;7;7;
44350;PMS5003;62766;62.622;17.912;2022-10-14T07:31:33;5;5;
44350;PMS5003;62766;62.622;17.912;2022-10-14T07:34:01;9;8;
44350;PMS5003;62766;62.622;17.912;2022-10-14T07:36:29;12;11;
44350;PMS5003;62766;62.622;17.912;2022-10-14T07:38:58;9;6;
44350;PMS5003;62766;62.622;17.912;2022-10-14T07:41:26;9;9;
44350;PMS5003;62766;62.622;17.912;2022-10-14T07:43:56;7;7;
44350;PMS5003;62766;62.622;17.912;2022-10-14T07:46:26;9;9;
44350;PMS5003;62766;62.622;17.912;2022-10-14T07:48:57;11;9;
44350;PMS5003;62766;62.622;17.912;2022-10-14T07:51:28;10;9;
44350;PMS5003;62766;62.622;17.912;2022-10-14T07:53:57;10;8;
44350;PMS5003;62766;62.622;17.912;2022-10-14T07:56:26;11;9;
44350;PMS5003;62766;62.622;17.912;2022-10-14T07:58:54;13;9;
44350;PMS5003;62766;62.622;17.912;2022-10-14T08:01:22;10;10;
44350;PMS5003;62766;62.622;17.912;2022-10-14T08:03:51;7;5;
44350;PMS5003;62766;62.622;17.912;2022-10-14T08:06:19;7;7;
44350;PMS5003;62766;62.622;17.912;2022-10-14T08:08:47;11;10;
44350;PMS5003;62766;62.622;17.912;2022-10-14T08:11:17;8;8;
44350;PMS5003;62766;62.622;17.912;2022-10-14T08:13:48;10;8;
44350;PMS5003;62766;62.622;17.912;2022-10-14T08:16:18;8;8;
44350;PMS5003;62766;62.622;17.912;2022-10-14T08:18:48;6;6;
44350;PMS5003;62766;62.622;17.912;2022-10-14T08:21:18;9;9;
44350;PMS5003;62766;62.622;17.912;2022-10-14T08:23:48;11;11;
44350;PMS5003;62766;62.622;17.912;2022-10-14T08:26:17;10;9;
44350;PMS5003;62766;62.622;17.912;2022-10-14T08:28:49;8;8;
44350;PMS5003;62766;62.622;17.912;2022-10-14T08:31:19;10;10;
44350;PMS5003;62766;62.622;17.912;2022-10-14T08:33:49;8;8;
44350;PMS5003;62766;62.622;17.912;2022-10-14T08:36:17;9;9;
44350;PMS5003;62766;62.622;17.912;2022-10-14T08:38:47;9;9;
44350;PMS5003;62766;62.622;17.912;2022-10-14T08:41:26;6;6;
44350;PMS5003;62766;62.622;17.912;2022-10-14T08:44:09;9;8;
44350;PMS5003;62766;62.622;17.912;2022-10-14T08:46:45;10;10;
44350;PMS5003;62766;62.622;17.912;2022-10-14T08:49:18;10;10;
44350;PMS5003;62766;62.622;17.912;2022-10-14T08:51:52;8;8;
44350;PMS5003;62766;62.622;17.912;2022-10-14T08:54:28;9;9;
44350;PMS5003;62766;62.622;17.912;2022-10-14T08:57:01;11;9;
44350;PMS5003;62766;62.622;17.912;2022-10-14T08:59:31;8;8;
44350;PMS5003;62766;62.622;17.912;2022-10-14T09:02:09;7;7;
44350;PMS5003;62766;62.622;17.912;2022-10-14T09:04:48;11;9;
44350;PMS5003;62766;62.622;17.912;2022-10-14T09:07:17;9;9;
44350;PMS5003;62766;62.622;17.912;2022-10-14T09:09:47;9;9;
44350;PMS5003;62766;62.622;17.912;2022-10-14T09:12:19;11;11;
44350;PMS5003;62766;62.622;17.912;2022-10-14T09:14:55;10;8;
44350;PMS5003;62766;62.622;17.912;2022-10-14T09:17:31;8;8;
44350;PMS5003;62766;62.622;17.912;2022-10-14T09:20:12;15;12;
44350;PMS5003;62766;62.622;17.912;2022-10-14T09:22:46;10;10;
44350;PMS5003;62766;62.622;17.912;2022-10-14T09:25:24;9;9;
44350;PMS5003;62766;62.622;17.912;2022-10-14T09:27:53;11;11;
44350;PMS5003;62766;62.622;17.912;2022-10-14T09:30:21;13;12;
44350;PMS5003;62766;62.622;17.912;2022-10-14T09:32:49;10;9;
44350;PMS5003;62766;62.622;17.912;2022-10-14T09:35:22;8;8;
44350;PMS5003;62766;62.622;17.912;2022-10-14T09:37:53;10;7;
44350;PMS5003;62766;62.622;17.912;2022-10-14T09:40:23;7;7;
44350;PMS5003;62766;62.622;17.912;2022-10-14T09:42:58;11;11;
44350;PMS5003;62766;62.622;17.912;2022-10-14T09:45:44;6;6;
44350;PMS5003;62766;62.622;17.912;2022-10-14T09:48:17;6;6;
44350;PMS5003;62766;62.622;17.912;2022-10-14T09:50:52;9;9;
44350;PMS5003;62766;62.622;17.912;2022-10-14T09:53:26;8;8;
44350;PMS5003;62766;62.622;17.912;2022-10-14T09:55:57;6;6;
44350;PMS5003;62766;62.622;17.912;2022-10-14T09:58:31;7;7;
44350;PMS5003;62766;62.622;17.912;2022-10-14T10:03:46;8;8;
44350;PMS5003;62766;62.622;17.912;2022-10-14T10:06:16;12;11;
44350;PMS5003;62766;62.622;17.912;2022-10-14T10:08:53;10;10;
44350;PMS5003;62766;62.622;17.912;2022-10-14T10:11:26;17;15;
44350;PMS5003;62766;62.622;17.912;2022-10-14T10:13:56;11;11;
44350;PMS5003;62766;62.622;17.912;2022-10-14T10:16:26;10;10;
44350;PMS5003;62766;62.622;17.912;2022-10-14T10:18:57;12;12;
44350;PMS5003;62766;62.622;17.912;2022-10-14T10:21:48;7;7;
44350;PMS5003;62766;62.622;17.912;2022-10-14T10:24:17;12;10;
44350;PMS5003;62766;62.622;17.912;2022-10-14T10:26:46;11;11;
44350;PMS5003;62766;62.622;17.912;2022-10-14T10:29:22;13;13;
44350;PMS5003;62766;62.622;17.912;2022-10-14T10:31:55;12;10;
44350;PMS5003;62766;62.622;17.912;2022-10-14T10:34:37;16;13;
44350;PMS5003;62766;62.622;17.912;2022-10-14T10:37:26;12;11;
44350;PMS5003;62766;62.622;17.912;2022-10-14T10:40:02;15;12;
44350;PMS5003;62766;62.622;17.912;2022-10-14T10:42:47;9;9;
44350;PMS5003;62766;62.622;17.912;2022-10-14T10:45:30;10;10;
44350;PMS5003;62766;62.622;17.912;2022-10-14T10:48:18;12;11;
44350;PMS5003;62766;62.622;17.912;2022-10-14T10:50:53;12;10;
44350;PMS5003;62766;62.622;17.912;2022-10-14T10:53:35;13;13;
44350;PMS5003;62766;62.622;17.912;2022-10-14T10:56:31;11;11;
44350;PMS5003;62766;62.622;17.912;2022-10-14T10:59:27;15;15;
44350;PMS5003;62766;62.622;17.912;2022-10-14T11:02:20;11;11;
44350;PMS5003;62766;62.622;17.912;2022-10-14T11:05:07;10;10;
44350;PMS5003;62766;62.622;17.912;2022-10-14T11:07:52;10;10;
44350;PMS5003;62766;62.622;17.912;2022-10-14T11:10:27;9;9;
44350;PMS5003;62766;62.622;17.912;2022-10-14T11:13:00;12;12;
44350;PMS5003;62766;62.622;17.912;2022-10-14T11:15:40;11;11;
44350;PMS5003;62766;62.622;17.912;2022-10-14T11:18:19;13;13;
44350;PMS5003;62766;62.622;17.912;2022-10-14T11:21:01;9;9;
44350;PMS5003;62766;62.622;17.912;2022-10-14T11:23:42;10;10;
44350;PMS5003;62766;62.622;17.912;2022-10-14T11:26:23;10;10;
44350;PMS5003;62766;62.622;17.912;2022-10-14T11:29:08;12;12;
44350;PMS5003;62766;62.622;17.912;2022-10-14T11:31:49;15;15;
44350;PMS5003;62766;62.622;17.912;2022-10-14T11:34:32;12;12;
44350;PMS5003;62766;62.622;17.912;2022-10-14T11:37:17;9;9;
44350;PMS5003;62766;62.622;17.912;2022-10-14T11:39:54;11;10;
44350;PMS5003;62766;62.622;17.912;2022-10-14T11:42:30;13;12;
44350;PMS5003;62766;62.622;17.912;2022-10-14T11:45:44;12;11;
44350;PMS5003;62766;62.622;17.912;2022-10-14T11:48:21;11;11;
44350;PMS5003;62766;62.622;17.912;2022-10-14T11:51:05;14;13;
44350;PMS5003;62766;62.622;17.912;2022-10-14T11:53:43;13;13;
44350;PMS5003;62766;62.622;17.912;2022-10-14T11:56:22;14;13;
44350;PMS5003;62766;62.622;17.912;2022-10-14T11:58:58;12;12;
44350;PMS5003;62766;62.622;17.912;2022-10-14T12:01:30;9;9;
44350;PMS5003;62766;62.622;17.912;2022-10-14T12:04:01;13;12;
44350;PMS5003;62766;62.622;17.912;2022-10-14T12:06:34;12;10;
44350;PMS5003;62766;62.622;17.912;2022-10-14T12:09:08;16;16;
44350;PMS5003;62766;62.622;17.912;2022-10-14T12:11:47;10;10;
44350;PMS5003;62766;62.622;17.912;2022-10-14T12:14:20;10;10;
44350;PMS5003;62766;62.622;17.912;2022-10-14T12:16:57;10;10;
44350;PMS5003;62766;62.622;17.912;2022-10-14T12:19:29;11;9;
44350;PMS5003;62766;62.622;17.912;2022-10-14T12:22:01;11;10;
44350;PMS5003;62766;62.622;17.912;2022-10-14T12:24:37;12;11;
44350;PMS5003;62766;62.622;17.912;2022-10-14T12:27:08;12;10;
44350;PMS5003;62766;62.622;17.912;2022-10-14T12:29:40;11;11;
44350;PMS5003;62766;62.622;17.912;2022-10-14T12:32:18;11;11;
44350;PMS5003;62766;62.622;17.912;2022-10-14T12:34:49;17;17;
44350;PMS5003;62766;62.622;17.912;2022-10-14T12:37:39;9;9;
44350;PMS5003;62766;62.622;17.912;2022-10-14T12:40:21;9;9;
44350;PMS5003;62766;62.622;17.912;2022-10-14T12:43:00;12;10;
44350;PMS5003;62766;62.622;17.912;2022-10-14T12:45:32;11;10;
44350;PMS5003;62766;62.622;17.912;2022-10-14T12:48:05;11;11;
44350;PMS5003;62766;62.622;17.912;2022-10-14T12:50:40;13;11;
44350;PMS5003;62766;62.622;17.912;2022-10-14T12:53:15;15;9;
44350;PMS5003;62766;62.622;17.912;2022-10-14T12:55:50;14;12;
44350;PMS5003;62766;62.622;17.912;2022-10-14T12:58:22;9;9;
44350;PMS5003;62766;62.622;17.912;2022-10-14T13:00:56;17;17;
44350;PMS5003;62766;62.622;17.912;2022-10-14T13:03:29;13;12;
44350;PMS5003;62766;62.622;17.912;2022-10-14T13:06:34;9;9;
44350;PMS5003;62766;62.622;17.912;2022-10-14T13:09:31;12;11;
44350;PMS5003;62766;62.622;17.912;2022-10-14T13:12:10;12;11;
44350;PMS5003;62766;62.622;17.912;2022-10-14T13:16:11;15;14;
44350;PMS5003;62766;62.622;17.912;2022-10-14T13:19:39;12;12;
44350;PMS5003;62766;62.622;17.912;2022-10-14T13:22:40;17;17;
44350;PMS5003;62766;62.622;17.912;2022-10-14T13:25:12;14;12;
44350;PMS5003;62766;62.622;17.912;2022-10-14T13:27:46;17;15;
44350;PMS5003;62766;62.622;17.912;2022-10-14T13:30:22;17;14;
44350;PMS5003;62766;62.622;17.912;2022-10-14T13:32:57;17;17;
44350;PMS5003;62766;62.622;17.912;2022-10-14T13:35:31;14;13;
44350;PMS5003;62766;62.622;17.912;2022-10-14T13:38:11;17;14;
44350;PMS5003;62766;62.622;17.912;2022-10-14T13:40:42;15;15;
44350;PMS5003;62766;62.622;17.912;2022-10-14T13:43:14;18;16;
44350;PMS5003;62766;62.622;17.912;2022-10-14T13:45:47;18;16;
44350;PMS5003;62766;62.622;17.912;2022-10-14T13:48:22;16;15;
44350;PMS5003;62766;62.622;17.912;2022-10-14T13:51:03;18;18;
44350;PMS5003;62766;62.622;17.912;2022-10-14T13:53:49;23;18;
44350;PMS5003;62766;62.622;17.912;2022-10-14T13:56:18;20;17;
44350;PMS5003;62766;62.622;17.912;2022-10-14T13:58:50;14;14;
44350;PMS5003;62766;62.622;17.912;2022-10-14T14:01:19;17;13;
44350;PMS5003;62766;62.622;17.912;2022-10-14T14:03:51;17;15;
44350;PMS5003;62766;62.622;17.912;2022-10-14T14:06:24;20;18;
44350;PMS5003;62766;62.622;17.912;2022-10-14T14:08:55;23;21;
44350;PMS5003;62766;62.622;17.912;2022-10-14T14:11:26;21;19;
44350;PMS5003;62766;62.622;17.912;2022-10-14T14:13:56;16;16;
44350;PMS5003;62766;62.622;17.912;2022-10-14T14:16:29;19;19;
44350;PMS5003;62766;62.622;17.912;2022-10-14T14:19:00;16;14;
44350;PMS5003;62766;62.622;17.912;2022-10-14T14:21:28;18;16;
44350;PMS5003;62766;62.622;17.912;2022-10-14T14:23:58;17;16;
44350;PMS5003;62766;62.622;17.912;2022-10-14T14:26:31;20;17;
44350;PMS5003;62766;62.622;17.912;2022-10-14T14:29:02;17;16;
44350;PMS5003;62766;62.622;17.912;2022-10-14T14:31:32;17;17;
44350;PMS5003;62766;62.622;17.912;2022-10-14T14:34:02;18;15;
44350;PMS5003;62766;62.622;17.912;2022-10-14T14:36:31;26;25;
44350;PMS5003;62766;62.622;17.912;2022-10-14T14:39:00;23;21;
44350;PMS5003;62766;62.622;17.912;2022-10-14T14:41:31;19;16;
44350;PMS5003;62766;62.622;17.912;2022-10-14T14:44:01;18;17;
44350;PMS5003;62766;62.622;17.912;2022-10-14T14:46:33;21;18;
44350;PMS5003;62766;62.622;17.912;2022-10-14T14:49:04;18;18;
44350;PMS5003;62766;62.622;17.912;2022-10-14T14:51:35;20;20;
44350;PMS5003;62766;62.622;17.912;2022-10-14T14:54:06;17;17;
44350;PMS5003;62766;62.622;17.912;2022-10-14T14:56:37;21;20;
44350;PMS5003;62766;62.622;17.912;2022-10-14T14:59:08;20;20;
44350;PMS5003;62766;62.622;17.912;2022-10-14T15:01:48;26;24;
44350;PMS5003;62766;62.622;17.912;2022-10-14T15:04:17;25;24;
44350;PMS5003;62766;62.622;17.912;2022-10-14T15:06:48;22;21;
44350;PMS5003;62766;62.622;17.912;2022-10-14T15:09:20;19;18;
44350;PMS5003;62766;62.622;17.912;2022-10-14T15:11:52;19;18;
44350;PMS5003;62766;62.622;17.912;2022-10-14T15:14:26;16;16;
44350;PMS5003;62766;62.622;17.912;2022-10-14T15:16:56;21;20;
44350;PMS5003;62766;62.622;17.912;2022-10-14T15:19:27;21;19;
44350;PMS5003;62766;62.622;17.912;2022-10-14T15:22:31;20;18;
44350;PMS5003;62766;62.622;17.912;2022-10-14T15:25:05;28;24;
44350;PMS5003;62766;62.622;17.912;2022-10-14T15:27:39;29;26;
44350;PMS5003;62766;62.622;17.912;2022-10-14T15:30:17;21;18;
44350;PMS5003;62766;62.622;17.912;2022-10-14T15:32:47;16;16;
44350;PMS5003;62766;62.622;17.912;2022-10-14T15:35:17;21;21;
44350;PMS5003;62766;62.622;17.912;2022-10-14T15:37:48;21;17;
44350;PMS5003;62766;62.622;17.912;2022-10-14T15:40:19;20;18;
44350;PMS5003;62766;62.622;17.912;2022-10-14T15:42:49;19;18;
44350;PMS5003;62766;62.622;17.912;2022-10-14T15:45:18;22;22;
44350;PMS5003;62766;62.622;17.912;2022-10-14T15:47:46;19;17;
44350;PMS5003;62766;62.622;17.912;2022-10-14T15:50:21;19;17;
44350;PMS5003;62766;62.622;17.912;2022-10-14T15:52:51;20;20;
44350;PMS5003;62766;62.622;17.912;2022-10-14T15:55:21;18;18;
44350;PMS5003;62766;62.622;17.912;2022-10-14T15:57:51;24;22;
44350;PMS5003;62766;62.622;17.912;2022-10-14T16:03:23;18;17;
44350;PMS5003;62766;62.622;17.912;2022-10-14T16:05:54;17;14;
44350;PMS5003;62766;62.622;17.912;2022-10-14T16:08:22;15;13;
44350;PMS5003;62766;62.622;17.912;2022-10-14T16:10:51;14;14;
44350;PMS5003;62766;62.622;17.912;2022-10-14T16:13:19;16;16;
44350;PMS5003;62766;62.622;17.912;2022-10-14T16:15:47;14;14;
44350;PMS5003;62766;62.622;17.912;2022-10-14T16:18:19;17;17;
44350;PMS5003;62766;62.622;17.912;2022-10-14T16:20:47;15;13;
44350;PMS5003;62766;62.622;17.912;2022-10-14T16:23:15;15;15;
44350;PMS5003;62766;62.622;17.912;2022-10-14T16:25:45;19;16;
44350;PMS5003;62766;62.622;17.912;2022-10-14T16:28:15;22;22;
44350;PMS5003;62766;62.622;17.912;2022-10-14T16:30:46;17;15;
44350;PMS5003;62766;62.622;17.912;2022-10-14T16:33:16;16;16;
44350;PMS5003;62766;62.622;17.912;2022-10-14T16:35:48;26;23;
44350;PMS5003;62766;62.622;17.912;2022-10-14T16:38:19;14;13;
44350;PMS5003;62766;62.622;17.912;2022-10-14T16:40:52;17;15;
44350;PMS5003;62766;62.622;17.912;2022-10-14T16:43:20;20;17;
44350;PMS5003;62766;62.622;17.912;2022-10-14T16:45:49;15;15;
44350;PMS5003;62766;62.622;17.912;2022-10-14T16:48:17;14;14;
44350;PMS5003;62766;62.622;17.912;2022-10-14T16:50:47;15;15;
44350;PMS5003;62766;62.622;17.912;2022-10-14T16:53:16;12;12;
44350;PMS5003;62766;62.622;17.912;2022-10-14T16:55:46;16;14;
44350;PMS5003;62766;62.622;17.912;2022-10-14T16:58:15;12;12;
44350;PMS5003;62766;62.622;17.912;2022-10-14T17:00:43;14;13;